sensor_id;sensor_type;location;lat;lon;timestamp;pressure;altitude;pressure_sealevel;temperature;humidity
34979;BME280;21185;50.978;13.720;2023-04-05T00:00:59;98975.81;;;4.18;49.09
34979;BME280;21185;50.978;13.720;2023-04-05T00:06:02;98976.72;;;4.17;49.17
34979;BME280;21185;50.978;13.720;2023-04-05T00:11:06;98974.88;;;4.19;49.28
34979;BME280;21185;50.978;13.720;2023-04-05T00:16:08;98971.28;;;4.21;49.36
34979;BME280;21185;50.978;13.720;2023-04-05T00:21:11;98973.63;;;4.25;49.22
34979;BME280;21185;50.978;13.720;2023-04-05T00:26:15;98969.22;;;4.27;49.26
34979;BME280;21185;50.978;13.720;2023-04-05T00:31:21;98965.09;;;4.24;49.69
34979;BME280;21185;50.978;13.720;2023-04-05T00:36:23;98958.63;;;4.18;49.65
34979;BME280;21185;50.978;13.720;2023-04-05T00:41:25;98951.97;;;4.16;49.50
34979;BME280;21185;50.978;13.720;2023-04-05T00:46:27;98955.66;;;4.12;49.55
34979;BME280;21185;50.978;13.720;2023-04-05T00:51:30;98951.56;;;4.09;49.79
34979;BME280;21185;50.978;13.720;2023-04-05T00:56:35;98945.00;;;4.05;49.95
34979;BME280;21185;50.978;13.720;2023-04-05T01:01:39;98950.94;;;4.06;49.88
34979;BME280;21185;50.978;13.720;2023-04-05T01:12:04;98941.09;;;4.12;49.86
34979;BME280;21185;50.978;13.720;2023-04-05T01:17:08;98939.94;;;4.16;49.90
34979;BME280;21185;50.978;13.720;2023-04-05T01:33:17;98926.06;;;4.19;50.30
34979;BME280;21185;50.978;13.720;2023-04-05T01:38:27;98923.50;;;4.19;50.18
34979;BME280;21185;50.978;13.720;2023-04-05T01:43:31;98911.59;;;4.18;50.01
34979;BME280;21185;50.978;13.720;2023-04-05T01:48:35;98918.47;;;4.17;50.39
34979;BME280;21185;50.978;13.720;2023-04-05T01:53:37;98913.34;;;4.17;50.30
34979;BME280;21185;50.978;13.720;2023-04-05T01:58:40;98914.16;;;4.18;50.48
34979;BME280;21185;50.978;13.720;2023-04-05T02:03:42;98915.09;;;4.17;50.63
34979;BME280;21185;50.978;13.720;2023-04-05T02:08:44;98908.19;;;4.17;50.40
34979;BME280;21185;50.978;13.720;2023-04-05T02:13:46;98910.88;;;4.16;50.88
34979;BME280;21185;50.978;13.720;2023-04-05T02:18:48;98911.78;;;4.15;50.78
34979;BME280;21185;50.978;13.720;2023-04-05T02:23:54;98903.38;;;4.13;50.93
34979;BME280;21185;50.978;13.720;2023-04-05T02:28:56;98901.72;;;4.12;50.98
34979;BME280;21185;50.978;13.720;2023-04-05T02:33:58;98898.25;;;4.13;50.80
34979;BME280;21185;50.978;13.720;2023-04-05T02:39:02;98901.63;;;4.13;51.13
34979;BME280;21185;50.978;13.720;2023-04-05T02:44:05;98898.25;;;4.13;51.02
34979;BME280;21185;50.978;13.720;2023-04-05T02:49:07;98895.66;;;4.13;51.05
34979;BME280;21185;50.978;13.720;2023-04-05T02:54:10;98894.75;;;4.14;51.05
34979;BME280;21185;50.978;13.720;2023-04-05T02:59:14;98894.97;;;4.11;51.31
34979;BME280;21185;50.978;13.720;2023-04-05T03:04:18;98888.06;;;4.11;51.33
34979;BME280;21185;50.978;13.720;2023-04-05T03:09:20;98890.53;;;4.13;51.36
34979;BME280;21185;50.978;13.720;2023-04-05T03:14:28;98890.53;;;4.13;51.36
34979;BME280;21185;50.978;13.720;2023-04-05T03:19:31;98888.91;;;4.12;51.18
34979;BME280;21185;50.978;13.720;2023-04-05T03:24:44;98887.25;;;4.11;51.27
34979;BME280;21185;50.978;13.720;2023-04-05T03:29:49;98882.94;;;4.11;51.17
34979;BME280;21185;50.978;13.720;2023-04-05T03:34:52;98878.72;;;4.10;51.21
34979;BME280;21185;50.978;13.720;2023-04-05T03:39:55;98877.19;;;4.08;51.15
34979;BME280;21185;50.978;13.720;2023-04-05T03:44:57;98881.13;;;4.01;51.46
34979;BME280;21185;50.978;13.720;2023-04-05T03:50:00;98880.59;;;3.96;51.51
34979;BME280;21185;50.978;13.720;2023-04-05T03:55:05;98888.63;;;3.91;51.59
34979;BME280;21185;50.978;13.720;2023-04-05T04:00:09;98886.16;;;3.89;51.51
34979;BME280;21185;50.978;13.720;2023-04-05T04:05:17;98882.88;;;3.87;51.64
34979;BME280;21185;50.978;13.720;2023-04-05T04:10:24;98884.63;;;3.87;51.66
34979;BME280;21185;50.978;13.720;2023-04-05T04:15:30;98885.44;;;3.87;51.66
34979;BME280;21185;50.978;13.720;2023-04-05T04:20:43;98883.59;;;3.89;51.45
34979;BME280;21185;50.978;13.720;2023-04-05T04:26:06;98883.38;;;3.93;51.60
34979;BME280;21185;50.978;13.720;2023-04-05T04:31:33;98884.09;;;3.95;51.67
34979;BME280;21185;50.978;13.720;2023-04-05T04:36:49;98889.25;;;3.95;51.48
34979;BME280;21185;50.978;13.720;2023-04-05T04:42:07;98888.09;;;3.99;51.64
34979;BME280;21185;50.978;13.720;2023-04-05T04:47:30;98887.06;;;4.01;51.54
34979;BME280;21185;50.978;13.720;2023-04-05T04:52:48;98882.75;;;4.02;51.73
34979;BME280;21185;50.978;13.720;2023-04-05T04:57:51;98877.63;;;4.02;51.84
34979;BME280;21185;50.978;13.720;2023-04-05T05:02:54;98879.25;;;4.03;51.88
34979;BME280;21185;50.978;13.720;2023-04-05T05:07:56;98890.34;;;4.03;51.62
34979;BME280;21185;50.978;13.720;2023-04-05T05:12:58;98885.00;;;4.06;52.08
34979;BME280;21185;50.978;13.720;2023-04-05T05:18:00;98887.69;;;4.05;51.78
34979;BME280;21185;50.978;13.720;2023-04-05T05:23:05;98894.66;;;4.03;51.59
34979;BME280;21185;50.978;13.720;2023-04-05T05:28:07;98888.91;;;3.99;51.88
34979;BME280;21185;50.978;13.720;2023-04-05T05:33:09;98889.94;;;3.97;51.64
34979;BME280;21185;50.978;13.720;2023-04-05T05:38:14;98885.03;;;3.94;51.75
34979;BME280;21185;50.978;13.720;2023-04-05T05:43:17;98886.78;;;3.93;51.84
34979;BME280;21185;50.978;13.720;2023-04-05T05:48:21;98885.53;;;3.99;51.81
34979;BME280;21185;50.978;13.720;2023-04-05T05:53:23;98884.50;;;4.01;51.71
34979;BME280;21185;50.978;13.720;2023-04-05T05:58:25;98880.69;;;4.07;51.64
34979;BME280;21185;50.978;13.720;2023-04-05T06:03:27;98871.84;;;4.11;51.85
34979;BME280;21185;50.978;13.720;2023-04-05T06:08:31;98883.44;;;4.16;51.61
34979;BME280;21185;50.978;13.720;2023-04-05T06:13:32;98878.19;;;4.18;51.55
34979;BME280;21185;50.978;13.720;2023-04-05T06:18:34;98887.31;;;4.22;51.42
34979;BME280;21185;50.978;13.720;2023-04-05T06:23:37;98885.97;;;4.29;51.59
34979;BME280;21185;50.978;13.720;2023-04-05T06:28:38;98888.81;;;4.37;51.23
34979;BME280;21185;50.978;13.720;2023-04-05T06:33:41;98888.38;;;4.43;51.02
34979;BME280;21185;50.978;13.720;2023-04-05T06:38:43;98879.31;;;4.50;51.37
34979;BME280;21185;50.978;13.720;2023-04-05T06:43:46;98878.66;;;4.60;50.96
34979;BME280;21185;50.978;13.720;2023-04-05T06:48:48;98880.56;;;4.69;51.12
34979;BME280;21185;50.978;13.720;2023-04-05T06:53:50;98873.84;;;4.79;51.00
34979;BME280;21185;50.978;13.720;2023-04-05T06:58:52;98876.44;;;4.90;50.93
34979;BME280;21185;50.978;13.720;2023-04-05T07:03:56;98883.25;;;5.02;51.12
34979;BME280;21185;50.978;13.720;2023-04-05T07:08:58;98871.38;;;5.12;50.88
34979;BME280;21185;50.978;13.720;2023-04-05T07:14:00;98876.50;;;5.24;51.01
34979;BME280;21185;50.978;13.720;2023-04-05T07:19:02;98876.53;;;5.35;50.93
34979;BME280;21185;50.978;13.720;2023-04-05T07:24:06;98866.72;;;5.51;50.80
34979;BME280;21185;50.978;13.720;2023-04-05T07:29:09;98873.41;;;5.65;50.65
34979;BME280;21185;50.978;13.720;2023-04-05T07:34:12;98862.53;;;5.72;50.34
34979;BME280;21185;50.978;13.720;2023-04-05T07:39:14;98855.25;;;5.77;50.67
34979;BME280;21185;50.978;13.720;2023-04-05T07:44:16;98871.78;;;5.86;50.28
34979;BME280;21185;50.978;13.720;2023-04-05T07:49:25;98871.44;;;5.91;50.15
34979;BME280;21185;50.978;13.720;2023-04-05T07:54:32;98865.94;;;6.06;50.40
34979;BME280;21185;50.978;13.720;2023-04-05T07:59:35;98862.16;;;6.22;50.09
34979;BME280;21185;50.978;13.720;2023-04-05T08:04:37;98867.75;;;6.38;50.17
34979;BME280;21185;50.978;13.720;2023-04-05T08:09:39;98865.16;;;6.38;50.44
34979;BME280;21185;50.978;13.720;2023-04-05T08:14:41;98855.94;;;6.24;50.41
34979;BME280;21185;50.978;13.720;2023-04-05T08:19:43;98854.78;;;6.17;50.44
34979;BME280;21185;50.978;13.720;2023-04-05T08:24:45;98862.75;;;6.14;50.55
34979;BME280;21185;50.978;13.720;2023-04-05T08:29:47;98859.47;;;6.23;50.67
34979;BME280;21185;50.978;13.720;2023-04-05T08:34:49;98852.28;;;6.38;50.53
34979;BME280;21185;50.978;13.720;2023-04-05T08:39:52;98846.88;;;6.73;50.27
34979;BME280;21185;50.978;13.720;2023-04-05T08:44:56;98850.78;;;6.88;50.22
34979;BME280;21185;50.978;13.720;2023-04-05T08:49:59;98846.56;;;6.87;49.93
34979;BME280;21185;50.978;13.720;2023-04-05T08:55:01;98853.19;;;6.80;50.03
34979;BME280;21185;50.978;13.720;2023-04-05T09:00:03;98852.03;;;6.73;50.04
34979;BME280;21185;50.978;13.720;2023-04-05T09:05:08;98854.16;;;6.68;50.15
34979;BME280;21185;50.978;13.720;2023-04-05T09:10:12;98851.34;;;6.71;50.18
34979;BME280;21185;50.978;13.720;2023-04-05T09:15:15;98850.16;;;6.75;50.09
34979;BME280;21185;50.978;13.720;2023-04-05T09:20:18;98857.66;;;6.78;50.14
34979;BME280;21185;50.978;13.720;2023-04-05T09:25:33;98854.38;;;6.76;50.07
34979;BME280;21185;50.978;13.720;2023-04-05T09:30:37;98854.38;;;6.76;50.06
34979;BME280;21185;50.978;13.720;2023-04-05T09:35:41;98853.31;;;6.78;50.17
34979;BME280;21185;50.978;13.720;2023-04-05T09:40:47;98853.44;;;6.77;49.72
34979;BME280;21185;50.978;13.720;2023-04-05T09:45:59;98852.31;;;6.91;49.58
34979;BME280;21185;50.978;13.720;2023-04-05T09:51:05;98840.41;;;7.20;48.95
34979;BME280;21185;50.978;13.720;2023-04-05T09:56:13;98838.41;;;7.24;48.63
34979;BME280;21185;50.978;13.720;2023-04-05T10:01:15;98841.94;;;7.23;48.81
34979;BME280;21185;50.978;13.720;2023-04-05T10:06:18;98836.88;;;7.21;48.38
34979;BME280;21185;50.978;13.720;2023-04-05T10:11:20;98840.16;;;7.23;48.23
34979;BME280;21185;50.978;13.720;2023-04-05T10:16:25;98838.28;;;7.25;48.37
34979;BME280;21185;50.978;13.720;2023-04-05T10:21:32;98834.75;;;7.26;48.33
34979;BME280;21185;50.978;13.720;2023-04-05T10:26:43;98831.16;;;7.18;47.58
34979;BME280;21185;50.978;13.720;2023-04-05T10:31:54;98837.41;;;7.15;47.82
34979;BME280;21185;50.978;13.720;2023-04-05T10:37:01;98824.06;;;7.10;47.78
34979;BME280;21185;50.978;13.720;2023-04-05T10:42:31;98816.63;;;7.17;47.76
34979;BME280;21185;50.978;13.720;2023-04-05T10:47:49;98812.91;;;7.30;46.91
34979;BME280;21185;50.978;13.720;2023-04-05T10:52:55;98810.34;;;7.40;46.67
34979;BME280;21185;50.978;13.720;2023-04-05T10:57:58;98821.25;;;7.43;47.04
34979;BME280;21185;50.978;13.720;2023-04-05T11:03:01;98824.91;;;7.41;46.95
34979;BME280;21185;50.978;13.720;2023-04-05T11:08:07;98818.09;;;7.40;47.09
34979;BME280;21185;50.978;13.720;2023-04-05T11:13:09;98810.34;;;7.40;47.04
34979;BME280;21185;50.978;13.720;2023-04-05T11:18:20;98807.53;;;7.43;46.70
34979;BME280;21185;50.978;13.720;2023-04-05T11:23:25;98809.84;;;7.46;46.93
34979;BME280;21185;50.978;13.720;2023-04-05T11:28:34;98799.81;;;7.53;46.85
34979;BME280;21185;50.978;13.720;2023-04-05T11:44:24;98789.06;;;7.47;46.86
34979;BME280;21185;50.978;13.720;2023-04-05T11:49:27;98787.28;;;7.48;46.94
34979;BME280;21185;50.978;13.720;2023-04-05T11:54:32;98791.78;;;7.46;46.90
34979;BME280;21185;50.978;13.720;2023-04-05T11:59:34;98797.38;;;7.51;46.83
34979;BME280;21185;50.978;13.720;2023-04-05T12:04:37;98790.84;;;7.57;46.76
34979;BME280;21185;50.978;13.720;2023-04-05T12:10:13;98783.41;;;7.63;46.71
34979;BME280;21185;50.978;13.720;2023-04-05T12:15:17;98783.44;;;7.73;46.97
34979;BME280;21185;50.978;13.720;2023-04-05T12:20:22;98788.09;;;7.89;46.83
34979;BME280;21185;50.978;13.720;2023-04-05T12:25:27;98780.22;;;8.00;46.87
34979;BME280;21185;50.978;13.720;2023-04-05T12:30:29;98784.19;;;8.04;46.08
34979;BME280;21185;50.978;13.720;2023-04-05T12:35:37;98775.47;;;8.05;45.51
34979;BME280;21185;50.978;13.720;2023-04-05T12:40:40;98770.06;;;8.18;45.85
34979;BME280;21185;50.978;13.720;2023-04-05T12:45:42;98766.38;;;8.20;45.97
34979;BME280;21185;50.978;13.720;2023-04-05T12:50:46;98763.53;;;8.23;46.26
34979;BME280;21185;50.978;13.720;2023-04-05T12:55:51;98759.44;;;8.21;46.40
34979;BME280;21185;50.978;13.720;2023-04-05T13:00:53;98760.94;;;8.13;46.18
34979;BME280;21185;50.978;13.720;2023-04-05T13:05:55;98767.56;;;7.97;46.00
34979;BME280;21185;50.978;13.720;2023-04-05T13:10:57;98765.78;;;7.78;45.88
34979;BME280;21185;50.978;13.720;2023-04-05T13:15:59;98762.34;;;7.68;45.87
34979;BME280;21185;50.978;13.720;2023-04-05T13:21:01;98755.25;;;7.60;45.24
34979;BME280;21185;50.978;13.720;2023-04-05T13:26:08;98756.88;;;7.61;45.35
34979;BME280;21185;50.978;13.720;2023-04-05T13:31:10;98745.63;;;7.62;44.99
34979;BME280;21185;50.978;13.720;2023-04-05T13:36:16;98741.00;;;7.66;44.90
34979;BME280;21185;50.978;13.720;2023-04-05T13:41:18;98739.78;;;7.70;44.84
34979;BME280;21185;50.978;13.720;2023-04-05T13:46:20;98730.03;;;7.83;45.36
34979;BME280;21185;50.978;13.720;2023-04-05T13:51:22;98722.56;;;7.90;44.83
34979;BME280;21185;50.978;13.720;2023-04-05T13:56:24;98728.56;;;8.00;44.86
34979;BME280;21185;50.978;13.720;2023-04-05T14:01:26;98726.25;;;8.16;44.56
34979;BME280;21185;50.978;13.720;2023-04-05T14:06:28;98718.94;;;8.40;44.54
34979;BME280;21185;50.978;13.720;2023-04-05T14:11:34;98717.28;;;8.59;44.42
34979;BME280;21185;50.978;13.720;2023-04-05T14:16:36;98705.94;;;8.69;44.25
34979;BME280;21185;50.978;13.720;2023-04-05T14:21:40;98719.84;;;8.59;44.50
34979;BME280;21185;50.978;13.720;2023-04-05T14:26:42;98724.50;;;8.36;44.93
34979;BME280;21185;50.978;13.720;2023-04-05T14:31:53;98731.41;;;8.06;45.23
34979;BME280;21185;50.978;13.720;2023-04-05T14:36:56;98727.44;;;7.83;45.94
34979;BME280;21185;50.978;13.720;2023-04-05T14:41:59;98742.34;;;7.60;46.64
34979;BME280;21185;50.978;13.720;2023-04-05T14:47:01;98741.91;;;7.45;46.77
34979;BME280;21185;50.978;13.720;2023-04-05T14:52:04;98748.63;;;7.27;47.25
34979;BME280;21185;50.978;13.720;2023-04-05T14:57:06;98745.13;;;7.07;47.82
34979;BME280;21185;50.978;13.720;2023-04-05T15:02:08;98741.50;;;6.89;48.18
34979;BME280;21185;50.978;13.720;2023-04-05T15:07:10;98738.50;;;6.84;49.10
34979;BME280;21185;50.978;13.720;2023-04-05T15:12:13;98729.72;;;6.96;48.92
34979;BME280;21185;50.978;13.720;2023-04-05T15:17:22;98723.09;;;7.34;49.10
34979;BME280;21185;50.978;13.720;2023-04-05T15:22:24;98716.66;;;7.59;48.52
34979;BME280;21185;50.978;13.720;2023-04-05T15:27:26;98707.59;;;7.84;48.84
34979;BME280;21185;50.978;13.720;2023-04-05T15:32:28;98703.66;;;8.08;48.62
34979;BME280;21185;50.978;13.720;2023-04-05T15:37:34;98698.50;;;7.99;48.62
34979;BME280;21185;50.978;13.720;2023-04-05T15:42:36;98705.97;;;7.83;48.59
34979;BME280;21185;50.978;13.720;2023-04-05T15:47:38;98689.59;;;7.63;48.76
34979;BME280;21185;50.978;13.720;2023-04-05T15:52:41;98704.94;;;7.55;48.97
34979;BME280;21185;50.978;13.720;2023-04-05T15:57:42;98701.41;;;7.46;48.99
34979;BME280;21185;50.978;13.720;2023-04-05T16:02:44;98704.09;;;7.35;49.21
34979;BME280;21185;50.978;13.720;2023-04-05T16:07:47;98702.84;;;7.29;49.19
34979;BME280;21185;50.978;13.720;2023-04-05T16:12:51;98699.56;;;7.27;49.21
34979;BME280;21185;50.978;13.720;2023-04-05T16:17:53;98692.66;;;7.28;49.26
34979;BME280;21185;50.978;13.720;2023-04-05T16:22:55;98695.22;;;7.28;49.04
34979;BME280;21185;50.978;13.720;2023-04-05T16:27:57;98689.38;;;7.26;49.52
34979;BME280;21185;50.978;13.720;2023-04-05T16:33:00;98691.97;;;7.26;49.45
34979;BME280;21185;50.978;13.720;2023-04-05T16:38:02;98696.56;;;7.22;49.22
34979;BME280;21185;50.978;13.720;2023-04-05T16:43:04;98699.53;;;7.18;49.60
34979;BME280;21185;50.978;13.720;2023-04-05T16:48:06;98694.91;;;7.11;49.43
34979;BME280;21185;50.978;13.720;2023-04-05T16:53:09;98697.19;;;7.05;49.50
34979;BME280;21185;50.978;13.720;2023-04-05T16:58:12;98693.34;;;6.99;49.21
34979;BME280;21185;50.978;13.720;2023-04-05T17:03:14;98689.53;;;6.94;49.35
34979;BME280;21185;50.978;13.720;2023-04-05T17:08:16;98693.19;;;6.91;49.67
34979;BME280;21185;50.978;13.720;2023-04-05T17:13:18;98694.38;;;6.87;49.61
34979;BME280;21185;50.978;13.720;2023-04-05T17:18:20;98701.69;;;6.82;49.77
34979;BME280;21185;50.978;13.720;2023-04-05T17:23:23;98697.84;;;6.76;49.82
34979;BME280;21185;50.978;13.720;2023-04-05T17:28:25;98697.69;;;6.68;50.10
34979;BME280;21185;50.978;13.720;2023-04-05T17:33:27;98711.91;;;6.63;49.96
34979;BME280;21185;50.978;13.720;2023-04-05T17:38:29;98714.97;;;6.57;50.26
34979;BME280;21185;50.978;13.720;2023-04-05T17:43:31;98711.25;;;6.49;50.38
34979;BME280;21185;50.978;13.720;2023-04-05T17:48:34;98718.81;;;6.41;50.20
34979;BME280;21185;50.978;13.720;2023-04-05T17:53:36;98718.75;;;6.32;50.36
34979;BME280;21185;50.978;13.720;2023-04-05T17:58:38;98720.19;;;6.25;50.51
34979;BME280;21185;50.978;13.720;2023-04-05T18:03:41;98732.75;;;6.18;50.72
34979;BME280;21185;50.978;13.720;2023-04-05T18:08:43;98734.16;;;6.11;50.62
34979;BME280;21185;50.978;13.720;2023-04-05T18:13:45;98730.44;;;6.04;50.56
34979;BME280;21185;50.978;13.720;2023-04-05T18:18:48;98742.88;;;5.99;50.57
34979;BME280;21185;50.978;13.720;2023-04-05T18:23:51;98748.28;;;5.96;50.57
34979;BME280;21185;50.978;13.720;2023-04-05T18:28:53;98748.28;;;5.96;50.28
34979;BME280;21185;50.978;13.720;2023-04-05T18:34:00;98756.00;;;5.96;50.20
34979;BME280;21185;50.978;13.720;2023-04-05T18:39:05;98762.09;;;5.95;50.36
34979;BME280;21185;50.978;13.720;2023-04-05T18:44:08;98760.44;;;5.94;50.58
34979;BME280;21185;50.978;13.720;2023-04-05T18:49:10;98766.41;;;5.94;50.38
34979;BME280;21185;50.978;13.720;2023-04-05T18:54:12;98772.50;;;5.93;50.47
34979;BME280;21185;50.978;13.720;2023-04-05T18:59:14;98775.09;;;5.93;50.65
34979;BME280;21185;50.978;13.720;2023-04-05T19:04:18;98775.91;;;5.94;50.54
34979;BME280;21185;50.978;13.720;2023-04-05T19:09:20;98773.22;;;5.95;50.78
34979;BME280;21185;50.978;13.720;2023-04-05T19:14:23;98778.25;;;5.97;50.83
34979;BME280;21185;50.978;13.720;2023-04-05T19:19:25;98774.03;;;5.96;51.19
34979;BME280;21185;50.978;13.720;2023-04-05T19:24:27;98780.81;;;5.97;50.96
34979;BME280;21185;50.978;13.720;2023-04-05T19:29:29;98783.38;;;5.97;51.10
34979;BME280;21185;50.978;13.720;2023-04-05T19:34:31;98785.84;;;5.98;51.30
34979;BME280;21185;50.978;13.720;2023-04-05T19:39:35;98778.13;;;5.98;51.49
34979;BME280;21185;50.978;13.720;2023-04-05T19:44:51;98781.63;;;5.97;51.62
34979;BME280;21185;50.978;13.720;2023-04-05T19:49:55;98780.69;;;5.98;51.68
34979;BME280;21185;50.978;13.720;2023-04-05T19:54:57;98781.88;;;5.94;51.80
34979;BME280;21185;50.978;13.720;2023-04-05T20:00:39;98779.41;;;5.93;51.74
34979;BME280;21185;50.978;13.720;2023-04-05T20:10:43;98778.00;;;5.89;51.62
34979;BME280;21185;50.978;13.720;2023-04-05T20:15:48;98775.91;;;5.82;51.97
34979;BME280;21185;50.978;13.720;2023-04-05T20:20:52;98771.44;;;5.84;52.12
34979;BME280;21185;50.978;13.720;2023-04-05T20:25:54;98773.19;;;5.84;52.19
34979;BME280;21185;50.978;13.720;2023-04-05T20:30:56;98770.88;;;5.81;52.13
34979;BME280;21185;50.978;13.720;2023-04-05T20:35:58;98765.13;;;5.77;52.17
34979;BME280;21185;50.978;13.720;2023-04-05T20:41:01;98766.19;;;5.75;52.42
34979;BME280;21185;50.978;13.720;2023-04-05T20:46:04;98763.97;;;5.70;52.43
34979;BME280;21185;50.978;13.720;2023-04-05T20:51:07;98757.31;;;5.68;52.55
34979;BME280;21185;50.978;13.720;2023-04-05T20:56:10;98754.16;;;5.64;52.55
34979;BME280;21185;50.978;13.720;2023-04-05T21:01:12;98749.47;;;5.58;52.53
34979;BME280;21185;50.978;13.720;2023-04-05T21:06:14;98750.66;;;5.54;52.93
34979;BME280;21185;50.978;13.720;2023-04-05T21:11:16;98746.81;;;5.48;52.81
34979;BME280;21185;50.978;13.720;2023-04-05T21:16:18;98742.25;;;5.41;52.81
34979;BME280;21185;50.978;13.720;2023-04-05T21:21:20;98744.47;;;5.34;52.82
34979;BME280;21185;50.978;13.720;2023-04-05T21:26:22;98741.66;;;5.26;52.93
34979;BME280;21185;50.978;13.720;2023-04-05T21:31:24;98746.34;;;5.21;52.87
34979;BME280;21185;50.978;13.720;2023-04-05T21:36:27;98740.88;;;5.14;52.92
34979;BME280;21185;50.978;13.720;2023-04-05T21:41:29;98746.50;;;5.08;53.14
34979;BME280;21185;50.978;13.720;2023-04-05T21:46:31;98732.44;;;5.01;53.28
34979;BME280;21185;50.978;13.720;2023-04-05T21:51:33;98737.13;;;4.96;53.22
34979;BME280;21185;50.978;13.720;2023-04-05T21:56:36;98727.19;;;4.92;53.10
34979;BME280;21185;50.978;13.720;2023-04-05T22:01:38;98729.97;;;4.88;53.30
34979;BME280;21185;50.978;13.720;2023-04-05T22:06:40;98724.47;;;4.82;53.12
34979;BME280;21185;50.978;13.720;2023-04-05T22:11:42;98724.13;;;4.75;53.36
34979;BME280;21185;50.978;13.720;2023-04-05T22:16:44;98723.75;;;4.69;53.38
34979;BME280;21185;50.978;13.720;2023-04-05T22:21:46;98717.44;;;4.62;53.45
34979;BME280;21185;50.978;13.720;2023-04-05T22:26:48;98714.28;;;4.58;53.24
34979;BME280;21185;50.978;13.720;2023-04-05T22:31:52;98721.63;;;4.51;53.48
34979;BME280;21185;50.978;13.720;2023-04-05T22:36:55;98710.97;;;4.45;53.39
34979;BME280;21185;50.978;13.720;2023-04-05T22:41:56;98711.31;;;4.40;53.46
34979;BME280;21185;50.978;13.720;2023-04-05T22:46:58;98715.97;;;4.35;53.58
34979;BME280;21185;50.978;13.720;2023-04-05T22:52:00;98714.34;;;4.34;53.40
34979;BME280;21185;50.978;13.720;2023-04-05T22:57:02;98711.06;;;4.32;53.50
34979;BME280;21185;50.978;13.720;2023-04-05T23:02:04;98709.63;;;4.28;53.82
34979;BME280;21185;50.978;13.720;2023-04-05T23:07:06;98705.78;;;4.22;53.57
34979;BME280;21185;50.978;13.720;2023-04-05T23:12:08;98709.50;;;4.18;53.79
34979;BME280;21185;50.978;13.720;2023-04-05T23:17:12;98706.44;;;4.13;53.71
34979;BME280;21185;50.978;13.720;2023-04-05T23:22:14;98706.66;;;4.10;53.80
34979;BME280;21185;50.978;13.720;2023-04-05T23:27:15;98700.09;;;4.06;53.75
34979;BME280;21185;50.978;13.720;2023-04-05T23:32:18;98706.88;;;4.07;53.78
34979;BME280;21185;50.978;13.720;2023-04-05T23:37:19;98705.25;;;4.06;53.54
34979;BME280;21185;50.978;13.720;2023-04-05T23:42:21;98700.94;;;4.07;53.64
34979;BME280;21185;50.978;13.720;2023-04-05T23:47:23;98701.03;;;4.05;53.68
34979;BME280;21185;50.978;13.720;2023-04-05T23:52:25;98689.13;;;4.04;53.70
34979;BME280;21185;50.978;13.720;2023-04-05T23:57:27;98699.50;;;4.03;53.81
